createdAt,value
2018-06-25T09:43:14.905Z,1015
2018-06-25T09:44:14.438Z,985
2018-06-25T09:45:14.638Z,920
2018-06-25T09:46:14.638Z,835
2018-06-25T09:47:15.059Z,795
2018-06-25T09:48:14.653Z,830
2018-06-25T09:49:14.673Z,810
2018-06-25T09:50:14.940Z,725
2018-06-25T09:51:14.655Z,735
2018-06-25T09:52:14.680Z,815
2018-06-25T09:53:14.421Z,845
2018-06-25T09:54:14.668Z,880
2018-06-25T09:55:15.412Z,785
2018-06-25T09:56:14.680Z,740
2018-06-25T09:57:14.426Z,780
2018-06-25T09:58:14.520Z,765
2018-06-25T09:59:14.690Z,630
2018-06-25T10:00:14.732Z,610
2018-06-25T10:01:14.956Z,645
2018-06-25T10:02:14.718Z,655
2018-06-25T10:03:14.229Z,645
2018-06-25T10:04:14.731Z,625
2018-06-25T10:05:15.008Z,670
2018-06-25T10:06:14.977Z,775
2018-06-25T10:07:14.977Z,820
2018-06-25T10:08:14.760Z,775
2018-06-25T10:09:15.006Z,755
2018-06-25T10:10:14.991Z,685
2018-06-25T10:11:14.778Z,620
2018-06-25T10:12:14.747Z,585
2018-06-25T10:13:15.217Z,590
2018-06-25T10:14:14.965Z,630
2018-06-25T10:15:14.505Z,675
2018-06-25T10:16:15.020Z,710
2018-06-25T10:17:15.016Z,650
2018-06-25T10:18:14.796Z,585
2018-06-25T10:19:15.034Z,670
2018-06-25T10:20:14.814Z,710
2018-06-25T10:21:15.121Z,630
2018-06-25T10:22:15.043Z,570
2018-06-25T10:23:15.052Z,510
2018-06-25T10:24:15.051Z,500
2018-06-25T10:25:14.791Z,535
2018-06-25T10:26:14.550Z,575
2018-06-25T10:27:15.049Z,575
2018-06-25T10:28:15.129Z,560
2018-06-25T10:29:14.799Z,610
2018-06-25T10:30:14.553Z,665
2018-06-25T10:31:14.563Z,585
2018-06-25T10:32:14.821Z,520
2018-06-25T10:33:14.820Z,505
2018-06-25T10:34:15.066Z,500
2018-06-25T10:35:14.835Z,575
2018-06-25T10:36:14.581Z,600
2018-06-25T10:37:15.081Z,605
2018-06-25T10:38:14.333Z,635
2018-06-25T10:39:15.101Z,655
2018-06-25T10:40:15.094Z,660
2018-06-25T10:41:15.297Z,715
2018-06-25T10:42:15.479Z,705
2018-06-25T10:43:14.852Z,675
2018-06-25T10:44:15.116Z,585
2018-06-25T10:45:14.914Z,575
2018-06-25T10:46:15.142Z,630
2018-06-25T10:47:14.855Z,665
2018-06-25T10:48:14.876Z,710
2018-06-25T10:49:14.872Z,695
2018-06-25T10:50:15.152Z,630
2018-06-25T10:51:14.869Z,565
2018-06-25T10:52:15.120Z,530
2018-06-25T10:53:15.139Z,530
2018-06-25T10:54:15.128Z,550
2018-06-25T10:55:14.915Z,515
2018-06-25T10:56:15.152Z,520
2018-06-25T10:57:14.889Z,480
2018-06-25T10:58:14.749Z,455
2018-06-25T10:59:15.163Z,460
2018-06-25T11:00:16.644Z,500
2018-06-25T11:01:15.683Z,565
2018-06-25T11:02:14.921Z,600
2018-06-25T11:03:15.151Z,630
2018-06-25T11:04:15.156Z,675
2018-06-25T11:05:14.914Z,740
2018-06-25T11:06:14.920Z,805
2018-06-25T11:07:15.532Z,795
2018-06-25T11:08:14.922Z,685
2018-06-25T11:09:15.238Z,550
2018-06-25T11:10:14.967Z,490
2018-06-25T11:11:14.948Z,475
2018-06-25T11:12:14.944Z,470
2018-06-25T11:13:15.059Z,495
2018-06-25T11:14:15.219Z,520
2018-06-25T11:15:14.920Z,565
2018-06-25T11:16:15.191Z,580
2018-06-25T11:17:14.941Z,550
2018-06-25T11:18:15.212Z,505
2018-06-25T11:19:15.232Z,530
2018-06-25T11:20:14.986Z,555
2018-06-25T11:21:14.936Z,545
2018-06-25T11:22:14.939Z,470
2018-06-25T11:23:15.220Z,405
2018-06-25T11:24:14.968Z,385
2018-06-25T11:25:15.195Z,380
2018-06-25T11:26:14.948Z,375
2018-06-25T11:27:16.872Z,365
2018-06-25T11:28:15.205Z,350
2018-06-25T11:29:14.706Z,330
2018-06-25T11:30:15.205Z,325
2018-06-25T11:31:14.999Z,335
2018-06-25T11:32:14.964Z,370
2018-06-25T11:33:15.228Z,390
2018-06-25T11:34:14.972Z,410
2018-06-25T11:35:15.243Z,430
2018-06-25T11:36:14.970Z,420
2018-06-25T11:37:15.223Z,395
2018-06-25T11:38:15.567Z,375
2018-06-25T11:39:14.765Z,360
2018-06-25T11:40:15.020Z,340
2018-06-25T11:41:15.241Z,330
2018-06-25T11:42:14.996Z,330
2018-06-25T11:43:15.047Z,340
2018-06-25T11:44:14.988Z,355
2018-06-25T11:45:15.272Z,380
2018-06-25T11:46:14.976Z,390
2018-06-25T11:47:14.998Z,410
2018-06-25T11:48:15.233Z,430
2018-06-25T11:49:15.268Z,455
2018-06-25T11:50:14.992Z,455
2018-06-25T11:51:15.281Z,440
2018-06-25T11:52:15.002Z,425
2018-06-25T11:53:15.271Z,415
2018-06-25T11:54:14.733Z,390
2018-06-25T11:55:15.038Z,360
2018-06-25T11:56:14.725Z,350
2018-06-25T11:57:15.238Z,345
2018-06-25T11:58:14.746Z,330
2018-06-25T11:59:15.253Z,315
2018-06-25T12:00:15.256Z,310
2018-06-25T12:01:15.044Z,310
2018-06-25T12:02:15.324Z,320
2018-06-25T12:03:16.171Z,325
2018-06-25T12:04:14.993Z,330
2018-06-25T12:05:15.000Z,340
2018-06-25T12:06:15.009Z,340
2018-06-25T12:07:15.050Z,330
2018-06-25T12:08:15.200Z,315
2018-06-25T12:09:15.019Z,310
2018-06-25T12:10:15.241Z,310
2018-06-25T12:11:15.255Z,320
2018-06-25T12:12:15.669Z,340
2018-06-25T12:13:15.252Z,370
2018-06-25T12:14:15.291Z,445
2018-06-25T12:15:14.746Z,495
2018-06-25T12:16:15.299Z,520
2018-06-25T12:17:15.009Z,560
2018-06-25T12:18:14.754Z,590
2018-06-25T12:19:15.314Z,580
2018-06-25T12:20:15.525Z,530
2018-06-25T12:21:14.743Z,465
2018-06-25T12:22:15.253Z,420
2018-06-25T12:23:15.693Z,420
2018-06-25T12:24:15.248Z,435
2018-06-25T12:25:14.999Z,450
2018-06-25T12:26:15.271Z,490
2018-06-25T12:27:15.273Z,555
2018-06-25T12:28:15.255Z,600
2018-06-25T12:29:15.007Z,560
2018-06-25T12:30:15.040Z,565
2018-06-25T12:31:15.028Z,580
2018-06-25T12:32:15.060Z,590
2018-06-25T12:33:15.256Z,610
2018-06-25T12:34:15.331Z,620
2018-06-25T12:35:15.538Z,645
2018-06-25T12:36:15.069Z,665
2018-06-25T12:37:15.059Z,655
2018-06-25T12:38:15.305Z,660
2018-06-25T12:39:15.021Z,665
2018-06-25T12:40:15.027Z,650
2018-06-25T12:41:15.276Z,640
2018-06-25T12:42:15.107Z,635
2018-06-25T12:43:15.696Z,635
2018-06-25T12:44:14.850Z,640
2018-06-25T12:45:15.347Z,650
2018-06-25T12:46:14.594Z,650
2018-06-25T12:47:15.112Z,630
2018-06-25T12:48:15.151Z,625
2018-06-25T12:49:15.362Z,620
2018-06-25T12:50:15.368Z,590
2018-06-25T12:51:15.072Z,550
2018-06-25T12:52:15.418Z,510
2018-06-25T12:53:15.372Z,500
2018-06-25T12:54:14.921Z,480
2018-06-25T12:55:14.860Z,460
2018-06-25T12:56:15.323Z,465
2018-06-25T12:57:15.891Z,475
2018-06-25T12:58:15.340Z,485
2018-06-25T12:59:15.150Z,495
2018-06-25T13:00:15.092Z,500
2018-06-25T13:01:15.383Z,495
2018-06-25T13:02:15.174Z,475
2018-06-25T13:03:15.273Z,455
2018-06-25T13:04:15.314Z,420
2018-06-25T13:05:15.222Z,390
2018-06-25T13:06:15.281Z,350
2018-06-25T13:07:15.127Z,315
2018-06-25T13:08:14.967Z,305
2018-06-25T13:09:15.786Z,310
2018-06-25T13:10:15.367Z,335
2018-06-25T13:11:15.185Z,375
2018-06-25T13:12:14.963Z,415
2018-06-25T13:13:15.495Z,450
2018-06-25T13:14:14.927Z,455
2018-06-25T13:15:14.884Z,445
2018-06-25T13:16:15.143Z,445
2018-06-25T13:17:15.201Z,445
2018-06-25T13:18:15.626Z,480
2018-06-25T13:19:14.919Z,555
2018-06-25T13:20:15.456Z,620
2018-06-25T13:21:15.211Z,670
2018-06-25T13:22:15.318Z,670
2018-06-25T13:23:15.484Z,670
2018-06-25T13:24:14.927Z,665
2018-06-25T13:25:15.018Z,585
2018-06-25T13:26:15.242Z,510
2018-06-25T13:27:15.548Z,455
2018-06-25T13:28:15.309Z,475
2018-06-25T13:29:15.447Z,495
2018-06-25T13:30:15.528Z,495
2018-06-25T13:31:15.789Z,510
2018-06-25T13:32:15.269Z,500
2018-06-25T13:33:15.371Z,505
2018-06-25T13:34:15.294Z,520
2018-06-25T13:35:15.278Z,480
2018-06-25T13:36:15.088Z,510
2018-06-25T13:37:15.415Z,500
2018-06-25T13:38:15.927Z,485
2018-06-25T13:39:15.748Z,480
2018-06-25T13:40:15.562Z,450
2018-06-25T13:41:15.327Z,420
2018-06-25T13:42:15.595Z,395
2018-06-25T13:43:15.629Z,415
2018-06-25T13:44:15.337Z,410
2018-06-25T13:45:15.112Z,420
2018-06-25T13:46:15.123Z,435
2018-06-25T13:47:15.671Z,410
2018-06-25T13:48:15.735Z,415
2018-06-25T13:49:15.468Z,400
2018-06-25T13:50:15.380Z,385
2018-06-25T13:51:15.362Z,370
2018-06-25T13:52:15.696Z,380
2018-06-25T13:53:15.621Z,415
2018-06-25T13:54:15.334Z,475
2018-06-25T13:55:15.305Z,525
2018-06-25T13:56:15.021Z,555
2018-06-25T13:57:14.813Z,515
2018-06-25T13:58:15.353Z,430
2018-06-25T13:59:15.549Z,425
2018-06-25T14:00:15.621Z,395
2018-06-25T14:01:15.617Z,385
2018-06-25T14:02:15.606Z,370
2018-06-25T14:03:15.619Z,395
2018-06-25T14:04:15.106Z,445
2018-06-25T14:05:15.112Z,465
2018-06-25T14:06:15.138Z,460
2018-06-25T14:07:15.640Z,445
2018-06-25T14:08:15.175Z,440
2018-06-25T14:09:15.644Z,450
2018-06-25T14:10:15.630Z,480
2018-06-25T14:11:15.344Z,545
2018-06-25T14:12:15.585Z,560
2018-06-25T14:13:15.082Z,515
2018-06-25T14:14:15.597Z,465
2018-06-25T14:15:15.590Z,445
2018-06-25T14:16:15.610Z,435
2018-06-25T14:17:15.983Z,420
2018-06-25T14:18:15.599Z,400
2018-06-25T14:19:15.129Z,395
2018-06-25T14:20:15.618Z,410
2018-06-25T14:21:15.404Z,435
2018-06-25T14:22:15.097Z,455
2018-06-25T14:23:15.365Z,475
2018-06-25T14:24:15.375Z,500
2018-06-25T14:25:15.632Z,540
2018-06-25T14:26:15.623Z,585
2018-06-25T14:27:15.150Z,630
2018-06-25T14:28:15.546Z,625
2018-06-25T14:29:15.379Z,600
2018-06-25T14:30:15.667Z,540
2018-06-25T14:31:15.660Z,485
2018-06-25T14:32:15.166Z,445
2018-06-25T14:33:15.406Z,435
2018-06-25T14:34:15.675Z,455
2018-06-25T14:35:15.403Z,495
2018-06-25T14:36:15.661Z,560
2018-06-25T14:37:15.667Z,595
2018-06-25T14:38:15.660Z,600
2018-06-25T14:39:15.175Z,585
2018-06-25T14:40:16.148Z,575
2018-06-25T14:41:15.438Z,595
2018-06-25T14:42:15.704Z,615
2018-06-25T14:43:15.459Z,635
2018-06-25T14:44:15.716Z,655
2018-06-25T14:45:15.921Z,650
2018-06-25T14:46:15.258Z,645
2018-06-25T14:47:15.767Z,630
2018-06-25T14:48:15.828Z,595
2018-06-25T14:49:15.728Z,565
2018-06-25T14:50:15.489Z,560
2018-06-25T14:51:15.260Z,585
2018-06-25T14:52:15.337Z,610
2018-06-25T14:53:15.507Z,655
2018-06-25T14:54:15.493Z,675
2018-06-25T14:55:15.243Z,640
2018-06-25T14:56:15.252Z,610
2018-06-25T14:57:15.517Z,600
2018-06-25T14:58:15.750Z,595
2018-06-25T14:59:16.009Z,600
2018-06-25T15:00:15.797Z,610
2018-06-25T15:01:15.783Z,610
2018-06-25T15:02:15.535Z,590
2018-06-25T15:03:15.784Z,550
2018-06-25T15:04:15.772Z,520
2018-06-25T15:05:15.844Z,475
2018-06-25T15:06:15.789Z,420
2018-06-25T15:07:15.824Z,375
2018-06-25T15:08:15.802Z,370
2018-06-25T15:09:15.579Z,370
2018-06-25T15:10:15.552Z,385
2018-06-25T15:11:15.865Z,415
2018-06-25T15:12:15.361Z,445
2018-06-25T15:13:15.713Z,470
2018-06-25T15:14:15.316Z,505
2018-06-25T15:15:15.818Z,530
2018-06-25T15:16:15.623Z,540
2018-06-25T15:17:15.863Z,550
2018-06-25T15:18:15.779Z,555
2018-06-25T15:19:15.836Z,545
2018-06-25T15:20:15.850Z,495
2018-06-25T15:21:15.860Z,470
2018-06-25T15:22:15.849Z,450
2018-06-25T15:23:15.614Z,460
2018-06-25T15:24:15.627Z,470
2018-06-25T15:25:15.656Z,470
2018-06-25T15:26:15.501Z,460
2018-06-25T15:27:15.633Z,440
2018-06-25T15:28:15.623Z,425
2018-06-25T15:29:15.421Z,435
2018-06-25T15:30:15.895Z,455
2018-06-25T15:31:15.641Z,450
2018-06-25T15:32:15.898Z,450
2018-06-25T15:33:15.681Z,435
2018-06-25T15:34:15.472Z,430
2018-06-25T15:35:15.921Z,430
2018-06-25T15:36:15.707Z,460
2018-06-25T15:37:15.921Z,485
2018-06-25T15:38:15.525Z,490
2018-06-25T15:39:15.676Z,490
2018-06-25T15:40:15.934Z,470
2018-06-25T15:41:15.935Z,450
2018-06-25T15:42:15.454Z,425
2018-06-25T15:43:15.689Z,405
2018-06-25T15:44:15.461Z,410
2018-06-25T15:45:15.948Z,430
2018-06-25T15:46:15.964Z,455
2018-06-25T15:47:15.949Z,455
2018-06-25T15:48:15.609Z,445
2018-06-25T15:49:15.471Z,415
2018-06-25T15:50:15.978Z,400
2018-06-25T15:51:15.746Z,380
2018-06-25T15:52:15.725Z,360
2018-06-25T15:53:15.738Z,355
2018-06-25T15:54:15.735Z,370
2018-06-25T15:55:15.491Z,380
2018-06-25T15:56:16.011Z,365
2018-06-25T15:57:15.997Z,360
2018-06-25T15:58:16.025Z,355
2018-06-25T15:59:15.996Z,365
2018-06-25T16:00:15.944Z,380
2018-06-25T16:01:16.018Z,400
2018-06-25T16:02:16.042Z,410
2018-06-25T16:03:16.018Z,405
2018-06-25T16:04:16.013Z,410
2018-06-25T16:05:16.019Z,435
2018-06-25T16:06:15.785Z,445
2018-06-25T16:07:16.031Z,425
2018-06-25T16:08:16.071Z,400
2018-06-25T16:09:15.777Z,385
2018-06-25T16:10:15.776Z,360
2018-06-25T16:11:15.524Z,340
2018-06-25T16:12:16.033Z,325
2018-06-25T16:13:15.820Z,300
2018-06-25T16:14:15.634Z,285
2018-06-25T16:15:15.793Z,260
2018-06-25T16:16:15.801Z,235
2018-06-25T16:17:15.804Z,210
2018-06-25T16:18:15.548Z,190
2018-06-25T16:19:15.803Z,185
2018-06-25T16:20:15.912Z,185
2018-06-25T16:21:16.068Z,185
2018-06-25T16:22:16.079Z,175
2018-06-25T16:23:15.818Z,160
2018-06-25T16:24:16.104Z,145
2018-06-25T16:25:15.824Z,135
2018-06-25T16:26:15.818Z,120
2018-06-25T16:27:16.100Z,105
2018-06-25T16:28:16.067Z,90
2018-06-25T16:29:16.071Z,85
2018-06-25T16:30:15.829Z,100
2018-06-25T16:31:15.838Z,110
2018-06-25T16:32:15.832Z,125
2018-06-25T16:33:15.819Z,140
2018-06-25T16:34:16.079Z,150
2018-06-25T16:35:16.105Z,155
2018-06-25T16:36:15.830Z,165
2018-06-25T16:37:16.088Z,170
2018-06-25T16:38:15.844Z,180
2018-06-25T16:39:16.136Z,200
2018-06-25T16:40:16.112Z,215
2018-06-25T16:41:16.094Z,210
2018-06-25T16:42:15.832Z,200
2018-06-25T16:43:15.844Z,180
2018-06-25T16:44:16.104Z,160
2018-06-25T16:45:16.143Z,150
2018-06-25T16:46:16.109Z,155
2018-06-25T16:47:16.142Z,165
2018-06-25T16:48:16.097Z,170
2018-06-25T16:49:16.103Z,170
2018-06-25T16:50:16.092Z,170
2018-06-25T16:51:15.837Z,165
2018-06-25T16:52:15.840Z,160
2018-06-25T16:53:15.590Z,155
2018-06-25T16:54:15.838Z,155
2018-06-25T16:55:16.110Z,160
2018-06-25T16:56:15.331Z,180
2018-06-25T16:57:16.086Z,180
2018-06-25T16:58:16.094Z,195
2018-06-25T16:59:16.091Z,205
2018-06-25T17:00:15.838Z,205
2018-06-25T17:01:15.832Z,210
2018-06-25T17:02:15.845Z,230
2018-06-25T17:03:15.587Z,255
2018-06-25T17:04:15.830Z,240
2018-06-25T17:05:16.077Z,205
2018-06-25T17:06:16.092Z,190
2018-06-25T17:07:16.091Z,190
2018-06-25T17:08:16.089Z,200
2018-06-25T17:09:16.087Z,210
2018-06-25T17:10:15.836Z,205
2018-06-25T17:11:15.825Z,210
2018-06-25T17:12:15.573Z,230
2018-06-25T17:13:15.842Z,220
2018-06-25T17:14:16.080Z,215
2018-06-25T17:15:16.077Z,210
2018-06-25T17:16:15.822Z,215
2018-06-25T17:17:16.080Z,205
2018-06-25T17:18:16.084Z,190
2018-06-25T17:19:15.874Z,185
2018-06-25T17:20:15.816Z,185
2018-06-25T17:21:15.828Z,190
2018-06-25T17:22:15.582Z,185
2018-06-25T17:23:15.585Z,175
2018-06-25T17:24:16.065Z,170
2018-06-25T17:25:16.075Z,175
2018-06-25T17:26:16.219Z,170
2018-06-25T17:27:15.826Z,180
2018-06-25T17:28:15.816Z,190
2018-06-25T17:29:15.815Z,190
2018-06-25T17:30:16.060Z,185
2018-06-25T17:31:16.072Z,175
2018-06-25T17:32:16.061Z,170
2018-06-25T17:33:16.064Z,160
2018-06-25T17:34:16.054Z,140
2018-06-25T17:35:15.816Z,130
2018-06-25T17:36:15.583Z,125
2018-06-25T17:37:16.268Z,120
2018-06-25T17:38:15.065Z,115
2018-06-25T17:39:16.050Z,115
2018-06-25T17:40:16.051Z,115
2018-06-25T17:41:15.809Z,110
2018-06-25T17:42:15.808Z,110
2018-06-25T17:43:15.807Z,105
2018-06-25T17:44:15.310Z,105
2018-06-25T17:45:16.050Z,100
2018-06-25T17:46:15.545Z,100
2018-06-25T17:47:15.295Z,100
2018-06-25T17:48:16.175Z,100
2018-06-25T17:49:16.040Z,100
2018-06-25T17:50:15.790Z,100
2018-06-25T17:51:16.037Z,100
2018-06-25T17:52:15.534Z,100
2018-06-25T17:53:15.788Z,100
2018-06-25T17:54:15.801Z,100
2018-06-25T17:55:16.028Z,105
2018-06-25T17:56:15.773Z,110
2018-06-25T17:57:15.796Z,110
2018-06-25T17:58:16.021Z,110
2018-06-25T17:59:16.024Z,115
2018-06-25T18:00:16.034Z,110
2018-06-25T18:01:16.014Z,105
2018-06-25T18:02:16.032Z,105
2018-06-25T18:03:16.038Z,105
2018-06-25T18:04:16.015Z,105
2018-06-25T18:05:16.020Z,110
2018-06-25T18:06:15.766Z,105
2018-06-25T18:07:15.765Z,105
2018-06-25T18:08:15.755Z,105
2018-06-25T18:09:16.007Z,105
2018-06-25T18:10:16.014Z,105
2018-06-25T18:11:16.006Z,100
2018-06-25T18:12:16.008Z,105
2018-06-25T18:13:16.239Z,105
2018-06-25T18:14:16.004Z,105
2018-06-25T18:15:16.029Z,100
2018-06-25T18:16:16.008Z,100
2018-06-25T18:17:15.990Z,95
2018-06-25T18:18:15.985Z,100
2018-06-25T18:19:15.734Z,100
2018-06-25T18:20:15.497Z,95
2018-06-25T18:21:15.729Z,95
2018-06-25T18:22:15.467Z,95
2018-06-25T18:23:15.987Z,90
2018-06-25T18:24:15.968Z,90
2018-06-25T18:25:15.974Z,95
2018-06-25T18:26:15.998Z,95
2018-06-25T18:27:15.969Z,90
2018-06-25T18:28:16.080Z,80
2018-06-25T18:29:15.978Z,75
2018-06-25T18:30:15.955Z,80
2018-06-25T18:31:15.697Z,75
2018-06-25T18:32:15.944Z,65
2018-06-25T18:33:15.962Z,60
2018-06-25T18:34:15.959Z,60
2018-06-25T18:35:15.688Z,60
2018-06-25T18:36:15.693Z,70
2018-06-25T18:37:15.950Z,70
2018-06-25T18:38:15.437Z,65
2018-06-25T18:39:15.685Z,65
2018-06-25T18:40:15.433Z,60
2018-06-25T18:41:15.669Z,65
2018-06-25T18:42:15.164Z,60
2018-06-25T18:43:15.683Z,55
2018-06-25T18:44:15.659Z,55
2018-06-25T18:45:15.429Z,55
2018-06-25T18:46:15.941Z,50
2018-06-25T18:47:15.913Z,50
2018-06-25T18:48:15.682Z,50
2018-06-25T18:49:15.695Z,45
2018-06-25T18:50:15.672Z,45
2018-06-25T18:51:16.059Z,45
2018-06-25T18:52:15.892Z,45
2018-06-25T18:53:15.906Z,45
2018-06-25T18:54:15.841Z,45
2018-06-25T18:55:15.644Z,40
2018-06-25T18:56:15.898Z,40
2018-06-25T18:57:16.274Z,40
2018-06-25T18:58:15.892Z,40
2018-06-25T18:59:15.896Z,40
2018-06-25T19:00:15.365Z,35
2018-06-25T19:01:15.863Z,35
2018-06-25T19:02:15.627Z,35
2018-06-25T19:03:15.913Z,35
2018-06-25T19:04:15.920Z,35
2018-06-25T19:05:15.629Z,35
2018-06-25T19:06:15.887Z,30
2018-06-25T19:07:15.844Z,30
2018-06-25T19:08:15.865Z,30
2018-06-25T19:09:15.613Z,30
2018-06-25T19:10:15.363Z,30
2018-06-25T19:11:15.583Z,25
2018-06-25T19:12:16.063Z,25
2018-06-25T19:13:15.834Z,25
2018-06-25T19:14:15.825Z,25
2018-06-25T19:15:15.566Z,25
2018-06-25T19:16:15.339Z,20
2018-06-25T19:17:15.569Z,20
2018-06-25T19:18:15.579Z,20
2018-06-25T19:19:15.869Z,20
2018-06-25T19:20:15.042Z,20
2018-06-25T19:21:15.810Z,15
2018-06-25T19:22:15.556Z,15
2018-06-25T19:23:15.566Z,15
2018-06-25T19:24:15.292Z,15
2018-06-25T19:25:15.792Z,15
2018-06-25T19:26:15.529Z,15
2018-06-25T19:27:15.805Z,10
2018-06-25T19:28:15.537Z,10
2018-06-25T19:29:15.539Z,10
2018-06-25T19:30:15.286Z,10
2018-06-25T19:31:15.326Z,10
2018-06-25T19:32:16.215Z,10
2018-06-25T19:33:15.779Z,10
2018-06-25T19:34:15.251Z,5
2018-06-25T19:35:15.773Z,5
2018-06-25T19:36:15.234Z,5
2018-06-25T19:37:15.500Z,5
2018-06-25T19:38:15.247Z,5
2018-06-25T19:39:15.747Z,5
2018-06-25T19:40:15.519Z,5
2018-06-25T19:41:15.741Z,5
2018-06-25T19:42:15.215Z,5
2018-06-25T19:43:15.731Z,5
2018-06-25T19:44:15.734Z,0
2018-06-25T19:45:15.717Z,0
2018-06-25T19:46:15.709Z,0
2018-06-25T19:47:15.474Z,0
2018-06-25T19:48:15.206Z,0
2018-06-25T19:49:15.479Z,0
2018-06-25T19:50:15.688Z,0
2018-06-25T19:51:15.455Z,0
2018-06-25T19:52:15.698Z,0
2018-06-25T19:53:15.452Z,0
2018-06-25T19:54:15.443Z,0
2018-06-25T19:55:15.428Z,0
2018-06-25T19:56:15.700Z,0
2018-06-25T19:57:15.665Z,0
2018-06-25T19:58:15.419Z,0
2018-06-25T19:59:15.451Z,0
2018-06-25T20:00:15.683Z,0
2018-06-25T20:01:15.398Z,0
2018-06-25T20:02:15.645Z,0
2018-06-25T20:03:15.380Z,0
2018-06-25T20:04:15.446Z,0
2018-06-25T20:05:15.643Z,0
2018-06-25T20:06:15.371Z,0
2018-06-25T20:07:15.383Z,0
2018-06-25T20:08:15.817Z,0
2018-06-25T20:09:15.602Z,0
2018-06-25T20:10:15.354Z,0
2018-06-25T20:11:15.813Z,0
2018-06-25T20:12:15.108Z,0
2018-06-25T20:13:15.332Z,0
2018-06-25T20:14:15.089Z,0
2018-06-25T20:15:15.170Z,0
2018-06-25T20:16:15.590Z,0
2018-06-25T20:17:15.570Z,0
2018-06-25T20:18:15.573Z,0
2018-06-25T20:19:15.311Z,0
2018-06-25T20:20:15.597Z,0
2018-06-25T20:21:15.565Z,0
2018-06-25T20:22:16.153Z,0
2018-06-25T20:23:15.568Z,0
2018-06-25T20:24:16.010Z,0
2018-06-25T20:25:15.544Z,0
2018-06-25T20:26:16.079Z,0
2018-06-25T20:27:15.569Z,0
2018-06-25T20:28:15.573Z,0
2018-06-25T20:29:15.981Z,0
2018-06-25T20:30:15.303Z,0
2018-06-25T20:31:15.533Z,0
2018-06-25T20:32:15.736Z,0
2018-06-25T20:33:15.575Z,0
2018-06-25T20:34:15.302Z,0
2018-06-25T20:35:15.594Z,0
2018-06-25T20:36:15.456Z,0
2018-06-25T20:37:15.502Z,0
2018-06-25T20:38:15.484Z,0
2018-06-25T20:39:15.517Z,0
2018-06-25T20:40:15.477Z,0
2018-06-25T20:41:15.222Z,0
2018-06-25T20:42:15.460Z,0
2018-06-25T20:43:14.984Z,0
2018-06-25T20:44:15.442Z,0
2018-06-25T20:45:15.444Z,0
2018-06-25T20:46:15.190Z,0
2018-06-25T20:47:15.424Z,0
2018-06-25T20:48:14.945Z,0
2018-06-25T20:49:15.409Z,0
2018-06-25T20:50:14.902Z,0
2018-06-25T20:51:15.156Z,0
2018-06-25T20:52:14.900Z,0
2018-06-25T20:53:15.246Z,0
2018-06-25T20:54:15.414Z,0
2018-06-25T20:55:15.137Z,0
2018-06-25T20:56:15.132Z,0
2018-06-25T20:57:15.119Z,0
2018-06-25T20:58:15.134Z,0
2018-06-25T20:59:15.368Z,0
2018-06-25T21:00:15.366Z,0
2018-06-25T21:01:15.351Z,0
2018-06-25T21:02:15.379Z,0
2018-06-25T21:03:15.144Z,0
2018-06-25T21:04:15.098Z,0
2018-06-25T21:05:15.074Z,0
2018-06-25T21:06:15.082Z,0
2018-06-25T21:07:15.072Z,0
2018-06-25T21:08:15.081Z,0
2018-06-25T21:09:15.320Z,0
2018-06-25T21:10:15.291Z,0
2018-06-25T21:11:15.312Z,0
2018-06-25T21:12:15.293Z,0
2018-06-25T21:13:15.286Z,0
2018-06-25T21:14:15.305Z,0
2018-06-25T21:15:15.028Z,0
2018-06-25T21:16:15.280Z,0
2018-06-25T21:17:15.290Z,0
2018-06-25T21:18:15.272Z,0
2018-06-25T21:19:15.263Z,0
2018-06-25T21:20:14.750Z,0
2018-06-25T21:21:15.012Z,0
2018-06-25T21:22:15.000Z,0
2018-06-25T21:23:14.746Z,0
2018-06-25T21:24:15.233Z,0
2018-06-25T21:25:15.030Z,0
2018-06-25T21:26:15.233Z,0
2018-06-25T21:27:14.974Z,0
2018-06-25T21:28:14.979Z,0
2018-06-25T21:29:14.988Z,0
2018-06-25T21:30:15.238Z,0
2018-06-25T21:31:14.944Z,0
2018-06-25T21:32:14.949Z,0
2018-06-25T21:33:14.693Z,0
2018-06-25T21:34:14.928Z,0
2018-06-25T21:35:14.914Z,0
2018-06-25T21:36:15.519Z,0
2018-06-25T21:37:15.172Z,0
2018-06-25T21:38:14.914Z,0
2018-06-25T21:39:14.902Z,0
2018-06-25T21:40:15.173Z,0
2018-06-25T21:41:15.212Z,0
2018-06-25T21:42:15.131Z,0
2018-06-25T21:43:15.127Z,0
2018-06-25T21:44:14.879Z,0
2018-06-25T21:45:14.619Z,0
2018-06-25T21:46:15.158Z,0
2018-06-25T21:47:15.108Z,0
2018-06-25T21:48:14.854Z,0
2018-06-25T21:49:15.104Z,0
2018-06-25T21:50:15.101Z,0
2018-06-25T21:51:14.591Z,0
2018-06-25T21:52:14.831Z,0
2018-06-25T21:53:15.068Z,0
2018-06-25T21:54:15.070Z,0
2018-06-25T21:55:14.816Z,0
2018-06-25T21:56:14.820Z,0
2018-06-25T21:57:14.800Z,0
2018-06-25T21:58:15.049Z,0
2018-06-25T21:59:15.053Z,0
2018-06-25T22:00:15.040Z,0
2018-06-25T22:01:14.798Z,0
2018-06-25T22:02:14.789Z,0
2018-06-25T22:03:15.028Z,0
2018-06-25T22:04:15.041Z,0
2018-06-25T22:05:15.039Z,0
2018-06-25T22:06:15.021Z,0
2018-06-25T22:07:15.020Z,0
2018-06-25T22:08:14.742Z,0
2018-06-25T22:09:14.512Z,0
2018-06-25T22:10:14.988Z,0
2018-06-25T22:11:14.731Z,0
2018-06-25T22:12:14.474Z,0
2018-06-25T22:13:14.472Z,0
2018-06-25T22:14:14.967Z,0
2018-06-25T22:15:14.963Z,0
2018-06-25T22:16:14.969Z,0
2018-06-25T22:17:14.697Z,0
2018-06-25T22:18:14.941Z,0
2018-06-25T22:19:14.932Z,0
2018-06-25T22:20:14.933Z,0
2018-06-25T22:21:14.765Z,0
2018-06-25T22:22:14.664Z,0
2018-06-25T22:23:14.155Z,0
2018-06-25T22:24:14.656Z,0
2018-06-25T22:25:14.395Z,0
2018-06-25T22:26:14.413Z,0
2018-06-25T22:27:14.646Z,0
2018-06-25T22:28:14.381Z,0
2018-06-25T22:29:14.642Z,0
2018-06-25T22:30:14.615Z,0
2018-06-25T22:31:14.621Z,0
2018-06-25T22:32:14.881Z,0
2018-06-25T22:33:14.599Z,0
2018-06-25T22:34:14.853Z,0
2018-06-25T22:35:15.123Z,0
2018-06-25T22:36:14.844Z,0
2018-06-25T22:37:14.844Z,0
2018-06-25T22:38:14.323Z,0
2018-06-25T22:39:14.826Z,0
2018-06-25T22:40:14.593Z,0
2018-06-25T22:41:14.802Z,0
2018-06-25T22:42:14.800Z,0
2018-06-25T22:43:14.791Z,0
2018-06-25T22:44:14.794Z,0
2018-06-25T22:45:14.790Z,0
2018-06-25T22:46:14.560Z,0
2018-06-25T22:47:14.527Z,0
2018-06-25T22:48:14.778Z,0
2018-06-25T22:49:14.257Z,0
2018-06-25T22:50:14.760Z,0
2018-06-25T22:51:14.748Z,0
2018-06-25T22:52:14.739Z,0
2018-06-25T22:53:14.739Z,0
2018-06-25T22:54:14.492Z,0
2018-06-25T22:55:14.235Z,0
2018-06-25T22:56:14.499Z,0
2018-06-25T22:57:14.753Z,0
2018-06-25T22:58:14.734Z,0
2018-06-25T22:59:14.450Z,0
2018-06-25T23:00:14.481Z,0
2018-06-25T23:01:14.188Z,0
2018-06-25T23:02:14.690Z,0
2018-06-25T23:03:14.703Z,0
2018-06-25T23:04:14.178Z,0
2018-06-25T23:05:14.675Z,0
2018-06-25T23:06:14.699Z,0
2018-06-25T23:07:14.426Z,0
2018-06-25T23:08:14.872Z,0
2018-06-25T23:09:14.668Z,0
2018-06-25T23:10:14.642Z,0
2018-06-25T23:11:14.383Z,0
2018-06-25T23:12:14.654Z,0
2018-06-25T23:13:15.070Z,0
2018-06-25T23:14:14.380Z,0
2018-06-25T23:15:14.629Z,0
2018-06-25T23:16:14.372Z,0
2018-06-25T23:17:14.351Z,0
2018-06-25T23:18:14.612Z,0
2018-06-25T23:19:14.353Z,0
2018-06-25T23:20:14.594Z,0
2018-06-25T23:21:14.079Z,0
2018-06-25T23:22:14.326Z,0
2018-06-25T23:23:14.585Z,0
2018-06-25T23:24:14.566Z,0
2018-06-25T23:25:14.577Z,0
2018-06-25T23:26:14.306Z,0
2018-06-25T23:27:14.057Z,0
2018-06-25T23:28:14.267Z,0
2018-06-25T23:29:14.284Z,0
2018-06-25T23:30:14.536Z,0
2018-06-25T23:31:14.528Z,0
2018-06-25T23:32:14.524Z,0
2018-06-25T23:33:14.529Z,0
2018-06-25T23:34:14.262Z,0
2018-06-25T23:35:14.501Z,0
2018-06-25T23:36:14.251Z,0
2018-06-25T23:37:14.234Z,0
2018-06-25T23:38:14.486Z,0
2018-06-25T23:39:14.239Z,0
2018-06-25T23:40:13.978Z,0
2018-06-25T23:41:13.977Z,0
2018-06-25T23:42:14.483Z,0
2018-06-25T23:43:14.214Z,0
2018-06-25T23:44:14.444Z,0
2018-06-25T23:45:14.456Z,0
2018-06-25T23:46:14.181Z,0
2018-06-25T23:47:14.178Z,0
2018-06-25T23:48:14.179Z,0
2018-06-25T23:49:14.422Z,0